sensor_id;sensor_type;location;lat;lon;timestamp;P1;durP1;ratioP1;P2;durP2;ratioP2
64615;SDS011;51027;42.162;24.754;2024-01-10T00:01:40;22.48;;;8.90;;
64615;SDS011;51027;42.162;24.754;2024-01-10T00:04:06;22.73;;;10.27;;
64615;SDS011;51027;42.162;24.754;2024-01-10T00:06:31;22.65;;;9.73;;
64615;SDS011;51027;42.162;24.754;2024-01-10T00:08:57;26.95;;;11.48;;
64615;SDS011;51027;42.162;24.754;2024-01-10T00:11:22;23.92;;;11.25;;
64615;SDS011;51027;42.162;24.754;2024-01-10T00:13:47;23.77;;;8.93;;
64615;SDS011;51027;42.162;24.754;2024-01-10T00:16:13;22.90;;;10.02;;
64615;SDS011;51027;42.162;24.754;2024-01-10T00:18:39;27.08;;;11.57;;
64615;SDS011;51027;42.162;24.754;2024-01-10T00:21:07;30.17;;;12.60;;
64615;SDS011;51027;42.162;24.754;2024-01-10T00:23:33;23.35;;;9.45;;
64615;SDS011;51027;42.162;24.754;2024-01-10T00:25:59;24.13;;;10.15;;
64615;SDS011;51027;42.162;24.754;2024-01-10T00:28:25;20.90;;;9.30;;
64615;SDS011;51027;42.162;24.754;2024-01-10T00:30:51;27.02;;;10.85;;
64615;SDS011;51027;42.162;24.754;2024-01-10T00:33:16;21.20;;;8.75;;
64615;SDS011;51027;42.162;24.754;2024-01-10T00:35:42;22.92;;;9.45;;
64615;SDS011;51027;42.162;24.754;2024-01-10T00:38:08;24.30;;;9.85;;
64615;SDS011;51027;42.162;24.754;2024-01-10T00:40:34;20.42;;;8.05;;
64615;SDS011;51027;42.162;24.754;2024-01-10T00:42:59;23.88;;;9.48;;
64615;SDS011;51027;42.162;24.754;2024-01-10T00:45:25;25.80;;;11.50;;
64615;SDS011;51027;42.162;24.754;2024-01-10T00:47:50;23.90;;;9.75;;
64615;SDS011;51027;42.162;24.754;2024-01-10T00:50:16;24.35;;;9.35;;
64615;SDS011;51027;42.162;24.754;2024-01-10T00:52:42;25.63;;;11.63;;
64615;SDS011;51027;42.162;24.754;2024-01-10T00:55:10;24.33;;;9.32;;
64615;SDS011;51027;42.162;24.754;2024-01-10T00:57:36;21.60;;;9.38;;
64615;SDS011;51027;42.162;24.754;2024-01-10T01:00:06;27.33;;;9.52;;
64615;SDS011;51027;42.162;24.754;2024-01-10T01:02:32;25.30;;;9.88;;
64615;SDS011;51027;42.162;24.754;2024-01-10T01:04:58;22.05;;;10.45;;
64615;SDS011;51027;42.162;24.754;2024-01-10T01:07:24;27.90;;;11.45;;
64615;SDS011;51027;42.162;24.754;2024-01-10T01:09:49;26.67;;;11.02;;
64615;SDS011;51027;42.162;24.754;2024-01-10T01:12:15;21.38;;;9.07;;
64615;SDS011;51027;42.162;24.754;2024-01-10T01:14:40;24.85;;;9.82;;
64615;SDS011;51027;42.162;24.754;2024-01-10T01:17:06;21.98;;;9.88;;
64615;SDS011;51027;42.162;24.754;2024-01-10T01:19:31;25.92;;;10.07;;
64615;SDS011;51027;42.162;24.754;2024-01-10T01:21:57;24.52;;;10.80;;
64615;SDS011;51027;42.162;24.754;2024-01-10T01:24:22;27.27;;;12.68;;
64615;SDS011;51027;42.162;24.754;2024-01-10T01:26:48;18.48;;;7.88;;
64615;SDS011;51027;42.162;24.754;2024-01-10T01:29:13;29.20;;;10.68;;
64615;SDS011;51027;42.162;24.754;2024-01-10T01:31:39;28.10;;;11.20;;
64615;SDS011;51027;42.162;24.754;2024-01-10T01:34:04;26.02;;;10.98;;
64615;SDS011;51027;42.162;24.754;2024-01-10T01:36:30;25.00;;;10.18;;
64615;SDS011;51027;42.162;24.754;2024-01-10T01:38:55;29.67;;;11.25;;
64615;SDS011;51027;42.162;24.754;2024-01-10T01:41:21;24.90;;;11.82;;
64615;SDS011;51027;42.162;24.754;2024-01-10T01:43:46;26.50;;;14.20;;
64615;SDS011;51027;42.162;24.754;2024-01-10T01:46:12;28.85;;;13.38;;
64615;SDS011;51027;42.162;24.754;2024-01-10T01:48:37;24.92;;;11.30;;
64615;SDS011;51027;42.162;24.754;2024-01-10T01:51:07;33.33;;;12.23;;
64615;SDS011;51027;42.162;24.754;2024-01-10T01:53:34;25.33;;;11.43;;
64615;SDS011;51027;42.162;24.754;2024-01-10T01:56:02;28.45;;;12.18;;
64615;SDS011;51027;42.162;24.754;2024-01-10T01:58:31;27.65;;;11.65;;
64615;SDS011;51027;42.162;24.754;2024-01-10T02:00:56;28.35;;;11.52;;
64615;SDS011;51027;42.162;24.754;2024-01-10T02:03:22;24.90;;;11.20;;
64615;SDS011;51027;42.162;24.754;2024-01-10T02:05:48;25.48;;;11.88;;
64615;SDS011;51027;42.162;24.754;2024-01-10T02:08:14;28.08;;;11.90;;
64615;SDS011;51027;42.162;24.754;2024-01-10T02:10:40;31.33;;;12.68;;
64615;SDS011;51027;42.162;24.754;2024-01-10T02:13:06;25.38;;;11.68;;
64615;SDS011;51027;42.162;24.754;2024-01-10T02:15:34;26.52;;;12.02;;
64615;SDS011;51027;42.162;24.754;2024-01-10T02:18:00;27.48;;;12.75;;
64615;SDS011;51027;42.162;24.754;2024-01-10T02:20:26;26.52;;;12.02;;
64615;SDS011;51027;42.162;24.754;2024-01-10T02:22:51;27.85;;;11.85;;
64615;SDS011;51027;42.162;24.754;2024-01-10T02:25:17;25.25;;;9.77;;
64615;SDS011;51027;42.162;24.754;2024-01-10T02:27:43;20.92;;;10.48;;
64615;SDS011;51027;42.162;24.754;2024-01-10T02:30:08;24.10;;;10.57;;
64615;SDS011;51027;42.162;24.754;2024-01-10T02:32:35;26.70;;;11.05;;
64615;SDS011;51027;42.162;24.754;2024-01-10T02:35:01;25.27;;;10.48;;
64615;SDS011;51027;42.162;24.754;2024-01-10T02:37:27;25.50;;;11.75;;
64615;SDS011;51027;42.162;24.754;2024-01-10T02:39:52;23.25;;;9.75;;
64615;SDS011;51027;42.162;24.754;2024-01-10T02:42:18;25.13;;;10.45;;
64615;SDS011;51027;42.162;24.754;2024-01-10T02:44:43;26.45;;;10.50;;
64615;SDS011;51027;42.162;24.754;2024-01-10T02:47:10;26.30;;;10.73;;
64615;SDS011;51027;42.162;24.754;2024-01-10T02:49:37;22.95;;;10.07;;
64615;SDS011;51027;42.162;24.754;2024-01-10T02:52:02;23.75;;;10.70;;
64615;SDS011;51027;42.162;24.754;2024-01-10T02:54:28;27.00;;;10.20;;
64615;SDS011;51027;42.162;24.754;2024-01-10T02:56:53;26.67;;;10.48;;
64615;SDS011;51027;42.162;24.754;2024-01-10T02:59:19;25.50;;;10.35;;
64615;SDS011;51027;42.162;24.754;2024-01-10T03:01:44;23.35;;;10.07;;
64615;SDS011;51027;42.162;24.754;2024-01-10T03:04:10;25.10;;;10.48;;
64615;SDS011;51027;42.162;24.754;2024-01-10T03:06:35;26.25;;;11.23;;
64615;SDS011;51027;42.162;24.754;2024-01-10T03:09:01;24.63;;;10.07;;
64615;SDS011;51027;42.162;24.754;2024-01-10T03:11:27;22.33;;;9.20;;
64615;SDS011;51027;42.162;24.754;2024-01-10T03:14:02;24.70;;;9.90;;
64615;SDS011;51027;42.162;24.754;2024-01-10T03:16:35;19.38;;;7.43;;
64615;SDS011;51027;42.162;24.754;2024-01-10T03:19:01;22.75;;;9.07;;
64615;SDS011;51027;42.162;24.754;2024-01-10T03:21:26;23.00;;;8.98;;
64615;SDS011;51027;42.162;24.754;2024-01-10T03:23:52;24.75;;;9.82;;
64615;SDS011;51027;42.162;24.754;2024-01-10T03:26:22;24.38;;;9.50;;
64615;SDS011;51027;42.162;24.754;2024-01-10T03:28:48;22.00;;;8.27;;
64615;SDS011;51027;42.162;24.754;2024-01-10T03:31:14;26.08;;;9.30;;
64615;SDS011;51027;42.162;24.754;2024-01-10T03:33:39;24.67;;;10.32;;
64615;SDS011;51027;42.162;24.754;2024-01-10T03:36:06;25.77;;;10.00;;
64615;SDS011;51027;42.162;24.754;2024-01-10T03:38:32;21.55;;;9.18;;
64615;SDS011;51027;42.162;24.754;2024-01-10T03:40:57;24.88;;;8.63;;
64615;SDS011;51027;42.162;24.754;2024-01-10T03:43:23;22.92;;;9.73;;
64615;SDS011;51027;42.162;24.754;2024-01-10T03:45:48;21.65;;;9.00;;
64615;SDS011;51027;42.162;24.754;2024-01-10T03:48:14;24.33;;;10.07;;
64615;SDS011;51027;42.162;24.754;2024-01-10T03:50:39;23.98;;;10.27;;
64615;SDS011;51027;42.162;24.754;2024-01-10T03:53:05;23.95;;;9.80;;
64615;SDS011;51027;42.162;24.754;2024-01-10T03:55:31;22.70;;;9.57;;
64615;SDS011;51027;42.162;24.754;2024-01-10T03:57:56;26.77;;;10.63;;
64615;SDS011;51027;42.162;24.754;2024-01-10T04:00:22;22.90;;;9.48;;
64615;SDS011;51027;42.162;24.754;2024-01-10T04:02:47;25.95;;;11.30;;
64615;SDS011;51027;42.162;24.754;2024-01-10T04:05:13;23.15;;;10.15;;
64615;SDS011;51027;42.162;24.754;2024-01-10T04:07:39;25.13;;;11.57;;
64615;SDS011;51027;42.162;24.754;2024-01-10T04:10:09;28.38;;;11.95;;
64615;SDS011;51027;42.162;24.754;2024-01-10T04:12:38;25.13;;;10.80;;
64615;SDS011;51027;42.162;24.754;2024-01-10T04:15:04;23.23;;;9.98;;
64615;SDS011;51027;42.162;24.754;2024-01-10T04:17:30;24.17;;;10.77;;
64615;SDS011;51027;42.162;24.754;2024-01-10T04:19:56;25.88;;;11.45;;
64615;SDS011;51027;42.162;24.754;2024-01-10T04:22:23;25.50;;;11.05;;
64615;SDS011;51027;42.162;24.754;2024-01-10T04:24:49;24.85;;;10.80;;
64615;SDS011;51027;42.162;24.754;2024-01-10T04:27:15;28.00;;;11.70;;
64615;SDS011;51027;42.162;24.754;2024-01-10T04:29:41;20.80;;;9.75;;
64615;SDS011;51027;42.162;24.754;2024-01-10T04:32:06;25.27;;;9.98;;
64615;SDS011;51027;42.162;24.754;2024-01-10T04:34:32;26.42;;;10.68;;
64615;SDS011;51027;42.162;24.754;2024-01-10T04:36:57;19.52;;;8.05;;
64615;SDS011;51027;42.162;24.754;2024-01-10T04:39:23;24.92;;;10.93;;
64615;SDS011;51027;42.162;24.754;2024-01-10T04:41:48;25.58;;;11.02;;
64615;SDS011;51027;42.162;24.754;2024-01-10T04:44:14;21.92;;;9.68;;
64615;SDS011;51027;42.162;24.754;2024-01-10T04:46:39;25.25;;;11.48;;
64615;SDS011;51027;42.162;24.754;2024-01-10T04:49:06;24.77;;;11.95;;
64615;SDS011;51027;42.162;24.754;2024-01-10T04:51:32;26.73;;;9.77;;
64615;SDS011;51027;42.162;24.754;2024-01-10T04:53:57;24.60;;;10.63;;
64615;SDS011;51027;42.162;24.754;2024-01-10T04:56:23;25.73;;;12.73;;
64615;SDS011;51027;42.162;24.754;2024-01-10T04:58:48;27.08;;;11.80;;
64615;SDS011;51027;42.162;24.754;2024-01-10T05:01:14;27.67;;;11.38;;
64615;SDS011;51027;42.162;24.754;2024-01-10T05:03:40;26.77;;;11.77;;
64615;SDS011;51027;42.162;24.754;2024-01-10T05:06:05;27.48;;;12.45;;
64615;SDS011;51027;42.162;24.754;2024-01-10T05:08:31;27.50;;;11.25;;
64615;SDS011;51027;42.162;24.754;2024-01-10T05:10:56;27.52;;;11.93;;
64615;SDS011;51027;42.162;24.754;2024-01-10T05:13:22;28.58;;;12.70;;
64615;SDS011;51027;42.162;24.754;2024-01-10T05:15:48;28.25;;;13.30;;
64615;SDS011;51027;42.162;24.754;2024-01-10T05:18:13;28.83;;;12.20;;
64615;SDS011;51027;42.162;24.754;2024-01-10T05:20:39;23.98;;;11.43;;
64615;SDS011;51027;42.162;24.754;2024-01-10T05:23:04;27.15;;;12.23;;
64615;SDS011;51027;42.162;24.754;2024-01-10T05:25:30;27.40;;;12.60;;
64615;SDS011;51027;42.162;24.754;2024-01-10T05:27:55;30.73;;;13.52;;
64615;SDS011;51027;42.162;24.754;2024-01-10T05:30:21;31.75;;;12.38;;
64615;SDS011;51027;42.162;24.754;2024-01-10T05:32:46;30.35;;;12.23;;
64615;SDS011;51027;42.162;24.754;2024-01-10T05:35:12;27.38;;;14.02;;
64615;SDS011;51027;42.162;24.754;2024-01-10T05:37:37;28.08;;;13.30;;
64615;SDS011;51027;42.162;24.754;2024-01-10T05:40:03;28.67;;;13.35;;
64615;SDS011;51027;42.162;24.754;2024-01-10T05:42:32;28.40;;;11.15;;
64615;SDS011;51027;42.162;24.754;2024-01-10T05:44:58;24.70;;;11.70;;
64615;SDS011;51027;42.162;24.754;2024-01-10T05:47:24;28.58;;;12.82;;
64615;SDS011;51027;42.162;24.754;2024-01-10T05:49:51;29.10;;;13.18;;
64615;SDS011;51027;42.162;24.754;2024-01-10T05:52:18;28.45;;;11.98;;
64615;SDS011;51027;42.162;24.754;2024-01-10T05:54:44;27.48;;;11.20;;
64615;SDS011;51027;42.162;24.754;2024-01-10T05:57:10;24.55;;;11.85;;
64615;SDS011;51027;42.162;24.754;2024-01-10T05:59:36;26.95;;;12.20;;
64615;SDS011;51027;42.162;24.754;2024-01-10T06:02:02;28.10;;;13.15;;
64615;SDS011;51027;42.162;24.754;2024-01-10T06:04:28;28.98;;;13.93;;
64615;SDS011;51027;42.162;24.754;2024-01-10T06:06:57;33.78;;;16.60;;
64615;SDS011;51027;42.162;24.754;2024-01-10T06:09:23;33.03;;;16.10;;
64615;SDS011;51027;42.162;24.754;2024-01-10T06:11:49;31.48;;;16.50;;
64615;SDS011;51027;42.162;24.754;2024-01-10T06:14:14;33.03;;;16.02;;
64615;SDS011;51027;42.162;24.754;2024-01-10T06:16:40;36.80;;;18.48;;
64615;SDS011;51027;42.162;24.754;2024-01-10T06:19:06;33.70;;;16.75;;
64615;SDS011;51027;42.162;24.754;2024-01-10T06:21:31;36.55;;;16.85;;
64615;SDS011;51027;42.162;24.754;2024-01-10T06:23:57;35.47;;;18.63;;
64615;SDS011;51027;42.162;24.754;2024-01-10T06:26:22;38.95;;;17.73;;
64615;SDS011;51027;42.162;24.754;2024-01-10T06:28:48;37.17;;;19.38;;
64615;SDS011;51027;42.162;24.754;2024-01-10T06:31:13;39.15;;;18.55;;
64615;SDS011;51027;42.162;24.754;2024-01-10T06:33:39;34.80;;;18.88;;
64615;SDS011;51027;42.162;24.754;2024-01-10T06:36:04;36.20;;;17.98;;
64615;SDS011;51027;42.162;24.754;2024-01-10T06:38:30;32.03;;;15.68;;
64615;SDS011;51027;42.162;24.754;2024-01-10T06:40:56;34.55;;;16.58;;
64615;SDS011;51027;42.162;24.754;2024-01-10T06:43:21;34.20;;;16.00;;
64615;SDS011;51027;42.162;24.754;2024-01-10T06:45:47;35.70;;;17.50;;
64615;SDS011;51027;42.162;24.754;2024-01-10T06:48:13;38.05;;;18.02;;
64615;SDS011;51027;42.162;24.754;2024-01-10T06:50:39;36.55;;;17.90;;
64615;SDS011;51027;42.162;24.754;2024-01-10T06:53:05;37.78;;;17.92;;
64615;SDS011;51027;42.162;24.754;2024-01-10T06:55:30;35.92;;;16.60;;
64615;SDS011;51027;42.162;24.754;2024-01-10T06:57:56;36.67;;;16.77;;
64615;SDS011;51027;42.162;24.754;2024-01-10T07:00:22;31.40;;;16.70;;
64615;SDS011;51027;42.162;24.754;2024-01-10T07:02:48;36.97;;;17.10;;
64615;SDS011;51027;42.162;24.754;2024-01-10T07:05:14;34.35;;;16.70;;
64615;SDS011;51027;42.162;24.754;2024-01-10T07:07:41;30.75;;;15.98;;
64615;SDS011;51027;42.162;24.754;2024-01-10T07:10:07;32.35;;;16.25;;
64615;SDS011;51027;42.162;24.754;2024-01-10T07:12:33;33.22;;;16.02;;
64615;SDS011;51027;42.162;24.754;2024-01-10T07:14:59;30.00;;;15.35;;
64615;SDS011;51027;42.162;24.754;2024-01-10T07:17:25;33.70;;;15.48;;
64615;SDS011;51027;42.162;24.754;2024-01-10T07:19:51;31.13;;;14.00;;
64615;SDS011;51027;42.162;24.754;2024-01-10T07:22:16;29.15;;;14.80;;
64615;SDS011;51027;42.162;24.754;2024-01-10T07:24:44;29.58;;;14.25;;
64615;SDS011;51027;42.162;24.754;2024-01-10T07:27:11;32.30;;;14.55;;
64615;SDS011;51027;42.162;24.754;2024-01-10T07:29:39;30.75;;;14.75;;
64615;SDS011;51027;42.162;24.754;2024-01-10T07:32:05;39.80;;;16.50;;
64615;SDS011;51027;42.162;24.754;2024-01-10T07:34:34;32.67;;;17.20;;
64615;SDS011;51027;42.162;24.754;2024-01-10T07:37:00;37.17;;;17.08;;
64615;SDS011;51027;42.162;24.754;2024-01-10T07:39:25;36.72;;;17.67;;
64615;SDS011;51027;42.162;24.754;2024-01-10T07:41:51;38.65;;;16.65;;
64615;SDS011;51027;42.162;24.754;2024-01-10T07:44:16;38.42;;;18.17;;
64615;SDS011;51027;42.162;24.754;2024-01-10T07:46:42;37.30;;;19.17;;
64615;SDS011;51027;42.162;24.754;2024-01-10T07:49:07;35.90;;;16.60;;
64615;SDS011;51027;42.162;24.754;2024-01-10T07:51:33;35.90;;;17.98;;
64615;SDS011;51027;42.162;24.754;2024-01-10T07:53:59;34.53;;;16.98;;
64615;SDS011;51027;42.162;24.754;2024-01-10T07:56:25;42.30;;;22.60;;
64615;SDS011;51027;42.162;24.754;2024-01-10T07:58:50;43.67;;;20.95;;
64615;SDS011;51027;42.162;24.754;2024-01-10T08:01:17;28.50;;;12.35;;
64615;SDS011;51027;42.162;24.754;2024-01-10T08:03:42;30.90;;;14.30;;
64615;SDS011;51027;42.162;24.754;2024-01-10T08:06:08;29.30;;;12.73;;
64615;SDS011;51027;42.162;24.754;2024-01-10T08:08:35;27.00;;;12.57;;
64615;SDS011;51027;42.162;24.754;2024-01-10T08:11:01;24.50;;;11.15;;
64615;SDS011;51027;42.162;24.754;2024-01-10T08:13:27;24.30;;;10.93;;
64615;SDS011;51027;42.162;24.754;2024-01-10T08:15:53;23.13;;;12.50;;
64615;SDS011;51027;42.162;24.754;2024-01-10T08:18:19;23.27;;;9.52;;
64615;SDS011;51027;42.162;24.754;2024-01-10T08:20:44;26.50;;;10.52;;
64615;SDS011;51027;42.162;24.754;2024-01-10T08:23:11;24.13;;;10.10;;
64615;SDS011;51027;42.162;24.754;2024-01-10T08:25:37;25.05;;;10.70;;
64615;SDS011;51027;42.162;24.754;2024-01-10T08:28:03;27.55;;;13.05;;
64615;SDS011;51027;42.162;24.754;2024-01-10T08:30:29;26.20;;;10.13;;
64615;SDS011;51027;42.162;24.754;2024-01-10T08:32:54;21.70;;;9.65;;
64615;SDS011;51027;42.162;24.754;2024-01-10T08:35:20;25.10;;;8.48;;
64615;SDS011;51027;42.162;24.754;2024-01-10T08:37:45;20.70;;;8.52;;
64615;SDS011;51027;42.162;24.754;2024-01-10T08:40:11;20.13;;;7.95;;
64615;SDS011;51027;42.162;24.754;2024-01-10T08:42:39;20.83;;;7.78;;
64615;SDS011;51027;42.162;24.754;2024-01-10T08:45:05;19.83;;;8.27;;
64615;SDS011;51027;42.162;24.754;2024-01-10T08:47:34;19.40;;;7.65;;
64615;SDS011;51027;42.162;24.754;2024-01-10T08:50:01;18.42;;;8.13;;
64615;SDS011;51027;42.162;24.754;2024-01-10T08:52:27;22.95;;;8.50;;
64615;SDS011;51027;42.162;24.754;2024-01-10T08:54:52;17.48;;;7.22;;
64615;SDS011;51027;42.162;24.754;2024-01-10T08:57:18;21.08;;;8.20;;
64615;SDS011;51027;42.162;24.754;2024-01-10T08:59:43;21.42;;;8.18;;
64615;SDS011;51027;42.162;24.754;2024-01-10T09:02:09;21.13;;;8.25;;
64615;SDS011;51027;42.162;24.754;2024-01-10T09:04:35;21.17;;;7.60;;
64615;SDS011;51027;42.162;24.754;2024-01-10T09:07:00;20.88;;;8.38;;
64615;SDS011;51027;42.162;24.754;2024-01-10T09:09:26;20.88;;;7.25;;
64615;SDS011;51027;42.162;24.754;2024-01-10T09:11:51;20.30;;;7.38;;
64615;SDS011;51027;42.162;24.754;2024-01-10T09:14:17;17.73;;;7.75;;
64615;SDS011;51027;42.162;24.754;2024-01-10T09:16:42;24.17;;;9.35;;
64615;SDS011;51027;42.162;24.754;2024-01-10T09:19:08;24.17;;;8.98;;
64615;SDS011;51027;42.162;24.754;2024-01-10T09:21:34;20.45;;;9.63;;
64615;SDS011;51027;42.162;24.754;2024-01-10T09:24:00;24.58;;;9.43;;
64615;SDS011;51027;42.162;24.754;2024-01-10T09:26:25;27.10;;;10.77;;
64615;SDS011;51027;42.162;24.754;2024-01-10T09:28:51;22.92;;;10.07;;
64615;SDS011;51027;42.162;24.754;2024-01-10T09:31:16;22.13;;;9.60;;
64615;SDS011;51027;42.162;24.754;2024-01-10T09:33:42;24.05;;;11.02;;
64615;SDS011;51027;42.162;24.754;2024-01-10T09:36:08;25.90;;;10.85;;
64615;SDS011;51027;42.162;24.754;2024-01-10T09:38:36;23.13;;;10.43;;
64615;SDS011;51027;42.162;24.754;2024-01-10T09:41:04;28.27;;;12.05;;
64615;SDS011;51027;42.162;24.754;2024-01-10T09:43:30;26.33;;;11.65;;
64615;SDS011;51027;42.162;24.754;2024-01-10T09:45:58;28.27;;;13.18;;
64615;SDS011;51027;42.162;24.754;2024-01-10T09:48:27;25.83;;;12.52;;
64615;SDS011;51027;42.162;24.754;2024-01-10T09:50:53;16.67;;;7.35;;
64615;SDS011;51027;42.162;24.754;2024-01-10T09:53:23;26.80;;;13.02;;
64615;SDS011;51027;42.162;24.754;2024-01-10T09:55:50;26.10;;;12.73;;
64615;SDS011;51027;42.162;24.754;2024-01-10T09:58:15;25.92;;;12.00;;
64615;SDS011;51027;42.162;24.754;2024-01-10T10:00:41;27.98;;;12.25;;
64615;SDS011;51027;42.162;24.754;2024-01-10T10:03:10;21.83;;;9.68;;
64615;SDS011;51027;42.162;24.754;2024-01-10T10:05:37;24.25;;;9.63;;
64615;SDS011;51027;42.162;24.754;2024-01-10T10:08:06;24.40;;;11.38;;
64615;SDS011;51027;42.162;24.754;2024-01-10T10:10:32;24.88;;;12.32;;
64615;SDS011;51027;42.162;24.754;2024-01-10T10:12:58;23.13;;;10.23;;
64615;SDS011;51027;42.162;24.754;2024-01-10T10:15:24;22.33;;;9.73;;
64615;SDS011;51027;42.162;24.754;2024-01-10T10:17:53;20.52;;;9.25;;
64615;SDS011;51027;42.162;24.754;2024-01-10T10:23:07;19.08;;;7.28;;
64615;SDS011;51027;42.162;24.754;2024-01-10T10:25:38;24.75;;;8.02;;
64615;SDS011;51027;42.162;24.754;2024-01-10T10:28:08;20.60;;;7.65;;
64615;SDS011;51027;42.162;24.754;2024-01-10T10:30:33;19.52;;;7.22;;
64615;SDS011;51027;42.162;24.754;2024-01-10T10:32:59;18.67;;;7.15;;
64615;SDS011;51027;42.162;24.754;2024-01-10T10:35:26;19.10;;;7.03;;
64615;SDS011;51027;42.162;24.754;2024-01-10T10:37:52;17.88;;;6.88;;
64615;SDS011;51027;42.162;24.754;2024-01-10T10:40:19;17.95;;;6.53;;
64615;SDS011;51027;42.162;24.754;2024-01-10T10:42:46;19.02;;;7.53;;
64615;SDS011;51027;42.162;24.754;2024-01-10T10:45:15;18.38;;;6.82;;
64615;SDS011;51027;42.162;24.754;2024-01-10T10:47:43;18.13;;;6.35;;
64615;SDS011;51027;42.162;24.754;2024-01-10T10:50:14;18.48;;;6.20;;
64615;SDS011;51027;42.162;24.754;2024-01-10T10:52:46;17.85;;;7.20;;
64615;SDS011;51027;42.162;24.754;2024-01-10T10:55:15;16.85;;;6.68;;
64615;SDS011;51027;42.162;24.754;2024-01-10T10:57:45;16.02;;;6.35;;
64615;SDS011;51027;42.162;24.754;2024-01-10T11:00:16;15.38;;;6.38;;
64615;SDS011;51027;42.162;24.754;2024-01-10T11:02:44;18.40;;;6.63;;
64615;SDS011;51027;42.162;24.754;2024-01-10T11:05:10;17.75;;;6.60;;
64615;SDS011;51027;42.162;24.754;2024-01-10T11:07:40;17.38;;;6.68;;
64615;SDS011;51027;42.162;24.754;2024-01-10T11:10:11;19.20;;;7.90;;
64615;SDS011;51027;42.162;24.754;2024-01-10T11:26:04;16.55;;;6.30;;
64615;SDS011;51027;42.162;24.754;2024-01-10T11:28:32;18.15;;;7.15;;
64615;SDS011;51027;42.162;24.754;2024-01-10T11:30:58;16.23;;;6.70;;
64615;SDS011;51027;42.162;24.754;2024-01-10T11:33:31;18.02;;;6.70;;
64615;SDS011;51027;42.162;24.754;2024-01-10T11:36:20;18.00;;;6.90;;
64615;SDS011;51027;42.162;24.754;2024-01-10T11:38:53;17.60;;;7.05;;
64615;SDS011;51027;42.162;24.754;2024-01-10T11:44:30;20.30;;;7.38;;
64615;SDS011;51027;42.162;24.754;2024-01-10T11:46:52;20.75;;;8.60;;
64615;SDS011;51027;42.162;24.754;2024-01-10T11:51:49;22.65;;;9.48;;
64615;SDS011;51027;42.162;24.754;2024-01-10T11:57:02;19.52;;;8.60;;
64615;SDS011;51027;42.162;24.754;2024-01-10T11:59:32;23.17;;;9.25;;
64615;SDS011;51027;42.162;24.754;2024-01-10T12:01:57;20.27;;;7.75;;
64615;SDS011;51027;42.162;24.754;2024-01-10T12:04:24;20.70;;;8.48;;
64615;SDS011;51027;42.162;24.754;2024-01-10T12:06:54;22.85;;;9.50;;
64615;SDS011;51027;42.162;24.754;2024-01-10T12:09:21;23.17;;;9.10;;
64615;SDS011;51027;42.162;24.754;2024-01-10T12:11:46;20.08;;;8.23;;
64615;SDS011;51027;42.162;24.754;2024-01-10T12:14:13;18.00;;;8.13;;
64615;SDS011;51027;42.162;24.754;2024-01-10T12:16:40;20.23;;;7.70;;
64615;SDS011;51027;42.162;24.754;2024-01-10T12:19:05;19.83;;;7.75;;
64615;SDS011;51027;42.162;24.754;2024-01-10T12:21:31;22.02;;;7.80;;
64615;SDS011;51027;42.162;24.754;2024-01-10T12:23:57;15.15;;;5.30;;
64615;SDS011;51027;42.162;24.754;2024-01-10T12:26:22;16.60;;;6.88;;
64615;SDS011;51027;42.162;24.754;2024-01-10T12:28:55;19.08;;;7.90;;
64615;SDS011;51027;42.162;24.754;2024-01-10T12:31:21;41.53;;;14.82;;
64615;SDS011;51027;42.162;24.754;2024-01-10T12:33:50;19.98;;;7.38;;
64615;SDS011;51027;42.162;24.754;2024-01-10T12:36:17;19.05;;;8.38;;
64615;SDS011;51027;42.162;24.754;2024-01-10T12:38:43;20.55;;;8.43;;
64615;SDS011;51027;42.162;24.754;2024-01-10T12:41:12;21.90;;;8.55;;
64615;SDS011;51027;42.162;24.754;2024-01-10T12:43:40;19.77;;;8.25;;
64615;SDS011;51027;42.162;24.754;2024-01-10T12:46:12;20.25;;;8.02;;
64615;SDS011;51027;42.162;24.754;2024-01-10T12:48:38;21.00;;;9.45;;
64615;SDS011;51027;42.162;24.754;2024-01-10T12:51:11;15.38;;;6.13;;
64615;SDS011;51027;42.162;24.754;2024-01-10T12:53:38;20.48;;;7.53;;
64615;SDS011;51027;42.162;24.754;2024-01-10T12:56:05;16.80;;;6.38;;
64615;SDS011;51027;42.162;24.754;2024-01-10T12:58:33;17.52;;;6.55;;
64615;SDS011;51027;42.162;24.754;2024-01-10T13:01:00;20.80;;;8.02;;
64615;SDS011;51027;42.162;24.754;2024-01-10T13:03:26;20.75;;;7.85;;
64615;SDS011;51027;42.162;24.754;2024-01-10T13:05:52;18.13;;;8.50;;
64615;SDS011;51027;42.162;24.754;2024-01-10T13:08:18;18.77;;;7.07;;
64615;SDS011;51027;42.162;24.754;2024-01-10T13:10:47;21.40;;;7.80;;
64615;SDS011;51027;42.162;24.754;2024-01-10T13:13:13;18.20;;;7.32;;
64615;SDS011;51027;42.162;24.754;2024-01-10T13:15:40;17.85;;;7.38;;
64615;SDS011;51027;42.162;24.754;2024-01-10T13:18:07;20.20;;;7.93;;
64615;SDS011;51027;42.162;24.754;2024-01-10T13:20:35;18.80;;;7.22;;
64615;SDS011;51027;42.162;24.754;2024-01-10T13:23:00;23.13;;;9.68;;
64615;SDS011;51027;42.162;24.754;2024-01-10T13:25:26;30.08;;;14.98;;
64615;SDS011;51027;42.162;24.754;2024-01-10T13:27:52;30.45;;;13.55;;
64615;SDS011;51027;42.162;24.754;2024-01-10T13:30:18;27.00;;;12.27;;
64615;SDS011;51027;42.162;24.754;2024-01-10T13:32:47;30.10;;;13.23;;
64615;SDS011;51027;42.162;24.754;2024-01-10T13:35:16;27.55;;;13.07;;
64615;SDS011;51027;42.162;24.754;2024-01-10T13:37:41;29.77;;;13.02;;
64615;SDS011;51027;42.162;24.754;2024-01-10T13:40:08;26.80;;;13.43;;
64615;SDS011;51027;42.162;24.754;2024-01-10T13:42:37;29.35;;;12.50;;
64615;SDS011;51027;42.162;24.754;2024-01-10T13:45:06;24.02;;;10.95;;
64615;SDS011;51027;42.162;24.754;2024-01-10T13:47:33;27.95;;;14.85;;
64615;SDS011;51027;42.162;24.754;2024-01-10T13:49:59;27.30;;;14.93;;
64615;SDS011;51027;42.162;24.754;2024-01-10T13:52:25;25.88;;;13.75;;
64615;SDS011;51027;42.162;24.754;2024-01-10T13:54:50;27.10;;;13.57;;
64615;SDS011;51027;42.162;24.754;2024-01-10T13:57:17;29.27;;;15.25;;
64615;SDS011;51027;42.162;24.754;2024-01-10T13:59:42;28.83;;;13.43;;
64615;SDS011;51027;42.162;24.754;2024-01-10T14:02:08;32.35;;;14.50;;
64615;SDS011;51027;42.162;24.754;2024-01-10T14:04:35;31.02;;;15.20;;
64615;SDS011;51027;42.162;24.754;2024-01-10T14:07:00;32.58;;;17.58;;
64615;SDS011;51027;42.162;24.754;2024-01-10T14:09:25;31.95;;;14.77;;
64615;SDS011;51027;42.162;24.754;2024-01-10T14:11:51;28.45;;;14.63;;
64615;SDS011;51027;42.162;24.754;2024-01-10T14:14:17;33.47;;;15.88;;
64615;SDS011;51027;42.162;24.754;2024-01-10T14:16:43;33.35;;;17.88;;
64615;SDS011;51027;42.162;24.754;2024-01-10T14:19:10;34.45;;;20.10;;
64615;SDS011;51027;42.162;24.754;2024-01-10T14:21:36;29.10;;;17.42;;
64615;SDS011;51027;42.162;24.754;2024-01-10T14:24:01;35.03;;;17.90;;
64615;SDS011;51027;42.162;24.754;2024-01-10T14:26:27;31.15;;;18.05;;
64615;SDS011;51027;42.162;24.754;2024-01-10T14:28:52;30.80;;;17.48;;
64615;SDS011;51027;42.162;24.754;2024-01-10T14:31:20;31.98;;;17.15;;
64615;SDS011;51027;42.162;24.754;2024-01-10T14:33:46;30.65;;;14.85;;